Time;durP1;ratioP1;P1;durP2;ratioP2;P2;SDS_P1;SDS_P2;PMS_P1;PMS_P2;Temp;Humidity;BMP_temperature;BMP_pressure;BME280_temperature;BME280_humidity;BME280_pressure;Samples;Min_cycle;Max_cycle;Signal;HPM_P1;HPM_P2
2021/09/15 05:28:21;;;;;;;;;;;;;;;;;;;;;
2021/09/15 05:35:32;;;;;;;;;;;;;;;;;;;;;
2021/09/15 05:42:52;;;;;;;;;;;;;;;;;;;;;
2021/09/15 06:28:37;;;;;;;;;;;;;;;;;;;;;
2021/09/15 07:44:51;;;;;;;;;;;;;;;;;;;;;
2021/09/15 08:12:23;;;;;;;23.83;21.35;;;18.90;96.40;;;;;;5210382;22;26255721;-92
2021/09/15 08:25:31;;;;;;;;;;;;;;;;;;;;;
2021/09/15 08:32:03;;;;;;;;;;;;;;;;;;;;;
2021/09/15 08:35:11;;;;;;;;;;;;;;;;;;;;;
2021/09/15 08:38:01;;;;;;;12.93;10.80;;;19.10;96.60;;;;;;6279569;22;20082;-89
2021/09/15 08:40:51;;;;;;;;;;;;;;;;;;;;;
2021/09/15 08:43:38;;;;;;;;;;;;;;;;;;;;;
2021/09/15 08:46:53;;;;;;;15.23;13.65;;;19.20;96.70;;;;;;6316515;22;20134;-91
2021/09/15 08:52:32;;;;;;;16.45;14.75;;;19.30;96.70;;;;;;6300307;22;20082;-88
2021/09/15 08:55:04;;;;;;;17.25;15.55;;;19.40;96.80;;;;;;6266099;22;19999;-89
2021/09/15 09:01:45;;;;;;;;;;;;;;;;;;;;;
2021/09/15 09:07:26;;;;;;;;;;;;;;;;;;;;;
2021/09/15 09:10:12;;;;;;;;;;;;;;;;;;;;;
2021/09/15 09:13:09;;;;;;;;;;;;;;;;;;;;;
2021/09/15 09:16:05;;;;;;;;;;;;;;;;;;;;;
2021/09/15 09:19:19;;;;;;;18.25;16.42;;;19.70;96.90;;;;;;6317857;22;20094;-89
2021/09/15 09:22:10;;;;;;;22.35;20.17;;;19.80;96.90;;;;;;6215121;23;20013;-89
2021/09/15 09:28:40;;;;;;;;;;;;;;;;;;;;;
2021/09/15 09:31:11;;;;;;;21.42;19.33;;;20.00;96.90;;;;;;6180992;23;20099;-89
2021/09/15 09:34:34;;;;;;;;;;;;;;;;;;;;;
2021/09/15 09:37:33;;;;;;;;;;;;;;;;;;;;;
2021/09/15 09:51:36;;;;;;;;;;;;;;;;;;;;;
2021/09/15 09:54:51;;;;;;;;;;;;;;;;;;;;;
2021/09/15 10:01:16;;;;;;;;;;;;;;;;;;;;;
2021/09/15 10:06:54;;;;;;;33.35;29.95;;;20.30;96.70;;;;;;6313733;22;20010;-93
2021/09/15 10:10:05;;;;;;;35.38;31.63;;;20.30;96.70;;;;;;6288289;22;20038;-92
2021/09/15 10:13:16;;;;;;;;;;;;;;;;;;;;;
2021/09/15 10:16:19;;;;;;;;;;;20.30;96.70;;;;;;6184604;23;19963;-90
2021/09/15 10:23:01;;;;;;;34.75;30.90;;;20.20;96.70;;;;;;6189842;23;20021;-91
2021/09/15 10:40:22;;;;;;;;;;;;;;;;;;;;;
2021/09/15 10:43:43;;;;;;;;;;;;;;;;;;;;;
2021/09/15 10:50:07;;;;;;;;;;;;;;;;;;;;;
2021/09/15 10:56:48;;;;;;;;;;;;;;;;;;;;;
2021/09/15 11:00:27;;;;;;;;;;;;;;;;;;;;;
2021/09/15 11:03:41;;;;;;;;;;;;;;;;;;;;;
2021/09/15 11:06:24;;;;;;;40.30;33.35;;;20.40;96.60;;;;;;6188093;23;20080;-91
2021/09/15 11:09:26;;;;;;;;;;;;;;;;;;;;;
2021/09/15 11:12:12;;;;;;;41.22;33.38;;;20.40;96.50;;;;;;6209929;22;20094;-92
2021/09/15 11:15:26;;;;;;;40.78;32.70;;;20.50;96.50;;;;;;6314948;22;20063;-92
2021/09/15 11:18:07;;;;;;;39.08;32.58;;;20.60;96.40;;;;;;6161029;23;20040;-88
2021/09/15 11:21:10;;;;;;;;;;;;;;;;;;;;;
2021/09/15 11:23:54;;;;;;;;;;;;;;;;;;;;;
2021/09/15 11:27:07;;;;;;;30.42;25.05;;;20.70;96.20;;;;;;6341615;22;20059;-90
2021/09/15 11:29:59;;;;;;;31.35;25.75;;;20.80;96.10;;;;;;6340902;22;20056;-91
2021/09/15 11:32:57;;;;;;;31.10;25.00;;;20.70;95.90;;;;;;6313191;22;20091;-90
2021/09/15 11:35:42;;;;;;;;;;;;;;;;;;;;;
2021/09/15 11:38:23;;;;;;;;;;;;;;;;;;;;;
2021/09/15 11:41:32;;;;;;;30.85;25.17;;;20.70;95.40;;;;;;6341621;22;20094;-92
2021/09/15 11:44:37;;;;;;;;;;;;;;;;;;;;;
2021/09/15 11:47:11;;;;;;;34.13;28.02;;;20.80;95.40;;;;;;6317958;22;20070;-90
2021/09/15 11:50:31;;;;;;;35.22;28.73;;;20.80;95.50;;;;;;6315436;22;20068;-91
2021/09/15 11:53:14;;;;;;;34.72;28.33;;;20.80;95.50;;;;;;6335828;22;20078;-90
2021/09/15 11:56:13;;;;;;;;;;;;;;;;;;;;;
2021/09/15 11:59:20;;;;;;;;;;;;;;;;;;;;;
2021/09/15 12:02:25;;;;;;;;;;;;;;;;;;;;;
2021/09/15 12:05:45;;;;;;;31.00;27.83;;;20.80;94.80;;;;;;6314246;22;20068;-92
2021/09/15 12:08:24;;;;;;;27.05;24.45;;;20.80;94.60;;;;;;6301687;22;20127;-92
2021/09/15 12:11:29;;;;;;;;;;;;;;;;;;;;;
2021/09/15 12:14:24;;;;;;;22.33;20.08;;;20.70;94.60;;;;;;6311974;22;20075;-92
2021/09/15 12:17:14;;;;;;;;;;;;;;;;;;;;;
2021/09/15 12:20:09;;;;;;;17.83;15.85;;;20.70;94.60;;;;;;6304508;22;20091;-92
2021/09/15 12:22:39;;;;;;;15.43;13.38;;;20.70;94.40;;;;;;6285426;22;20066;-90
2021/09/15 12:25:39;;;;;;;12.07;10.85;;;20.70;94.20;;;;;;6309120;22;20059;-90
2021/09/15 12:28:29;;;;;;;10.70;9.68;;;20.70;94.10;;;;;;6161692;22;20001;-91
2021/09/15 12:31:12;;;;;;;11.23;10.02;;;20.70;94.00;;;;;;6309775;22;19999;-89
2021/09/15 12:33:54;;;;;;;10.88;9.73;;;20.70;93.90;;;;;;6285741;22;20010;-91
2021/09/15 12:37:08;;;;;;;10.95;9.80;;;20.70;93.90;;;;;;6309133;22;20007;-91
2021/09/15 12:43:16;;;;;;;;;;;;;;;;;;;;;
2021/09/15 12:46:33;;;;;;;7.63;6.57;;;20.70;93.30;;;;;;6310436;22;20067;-90
2021/09/15 12:49:30;;;;;;;8.38;5.80;;;20.70;93.10;;;;;;6304160;22;20011;-89
2021/09/15 12:52:29;;;;;;;5.63;4.93;;;20.70;93.00;;;;;;6310388;22;20034;-92
2021/09/15 12:55:14;;;;;;;7.07;4.18;;;20.70;93.20;;;;;;6283855;22;20010;-92
2021/09/15 12:58:10;;;;;;;;;;;;;;;;;;;;;
2021/09/15 13:00:49;;;;;;;5.30;3.65;;;20.70;93.20;;;;;;6303869;22;20003;-90
2021/09/15 13:06:14;;;;;;;21.65;6.00;;;20.70;92.90;;;;;;6312948;22;20090;-89
2021/09/15 13:09:12;;;;;;;;;;;;;;;;;;;;;
2021/09/15 13:12:17;;;;;;;;;;;;;;;;;;;;;
2021/09/15 13:31:59;;;;;;;4.78;2.35;;;20.60;92.30;;;;;;6221024;22;20006;-91
2021/09/15 13:35:02;;;;;;;;;;;;;;;;;;;;;
2021/09/15 13:37:39;;;;;;;6.28;2.85;;;20.60;92.30;;;;;;6342729;22;20350;-90
2021/09/15 13:40:20;;;;;;;5.22;2.80;;;20.60;92.40;;;;;;6291521;22;20490;-90
2021/09/15 13:43:13;;;;;;;3.60;3.20;;;20.60;92.30;;;;;;6313587;22;20387;-91
2021/09/15 13:46:05;;;;;;;6.47;4.35;;;20.60;92.00;;;;;;6291401;22;20007;-91
2021/09/15 13:48:56;;;;;;;;;;;;;;;;;;;;;
2021/09/15 13:55:34;;;;;;;5.35;4.30;;;20.50;92.10;;;;;;6290127;22;20551;-90
2021/09/15 13:58:39;;;;;;;;;;;;;;;;;;;;;
2021/09/15 14:01:50;;;;;;;;;;;;;;;;;;;;;
2021/09/15 14:05:10;;;;;;;;;;;;;;;;;;;;;
2021/09/15 14:08:36;;;;;;;5.30;3.35;;;20.60;91.90;;;;;;6343406;22;20094;-92
2021/09/15 14:11:42;;;;;;;4.28;3.63;;;20.60;91.80;;;;;;6309180;22;20018;-91
2021/09/15 14:14:40;;;;;;;5.30;3.53;;;20.60;91.60;;;;;;6307673;22;19999;-92
2021/09/15 14:17:33;;;;;;;5.93;3.50;;;20.60;91.60;;;;;;6288659;22;20007;-93
2021/09/15 14:24:14;;;;;;;;;;;;;;;;;;;;;
2021/09/15 14:26:55;;;;;;;;;;;;;;;;;;;;;
2021/09/15 14:30:17;;;;;;;;;;;;;;;;;;;;;
2021/09/15 14:33:53;;;;;;;;;;;;;;;;;;;;;
2021/09/15 14:36:36;;;;;;;3.80;1.92;;;20.60;91.20;;;;;;6301094;22;20138;-91
2021/09/15 14:39:43;;;;;;;;;;;;;;;;;;;;;
2021/09/15 14:42:34;;;;;;;3.70;2.08;;;20.60;91.30;;;;;;6310175;22;20090;-91
2021/09/15 14:45:42;;;;;;;;;;;;;;;;;;;;;
2021/09/15 14:48:23;;;;;;;2.38;1.95;;;20.60;91.30;;;;;;6305867;22;20086;-92
2021/09/15 14:51:08;;;;;;;5.93;2.30;;;20.50;91.20;;;;;;6309970;22;20468;-90
2021/09/15 14:53:40;;;;;;;5.40;3.67;;;20.50;91.40;;;;;;6309823;22;20011;-90
2021/09/15 14:56:36;;;;;;;9.02;4.18;;;20.50;91.50;;;;;;6310404;22;20014;-90
2021/09/15 14:59:25;;;;;;;;;;;;;;;;;;;;;
2021/09/15 15:02:01;;;;;;;;;;;;;;;;;;;;;
2021/09/15 15:08:06;;;;;;;;;;;;;;;;;;;;;
2021/09/15 15:10:38;;;;;;;4.68;2.08;;;20.40;91.60;;;;;;6315423;22;20097;-91
2021/09/15 15:16:37;;;;;;;;;;;;;;;;;;;;;
2021/09/15 15:19:49;;;;;;;4.32;2.20;;;20.40;91.70;;;;;;6317377;22;20089;-90
2021/09/15 15:22:40;;;;;;;4.13;2.40;;;20.40;91.60;;;;;;6316140;22;20015;-90
2021/09/15 15:28:47;;;;;;;;;;;;;;;;;;;;;
2021/09/15 15:31:50;;;;;;;;;;;;;;;;;;;;;
2021/09/15 15:34:49;;;;;;;;;;;;;;;;;;;;;
2021/09/15 15:37:55;;;;;;;2.95;1.98;;;20.40;91.80;;;;;;6342039;22;20500;-90
2021/09/15 15:40:48;;;;;;;4.90;2.20;;;20.40;91.90;;;;;;6315036;22;20003;-90
2021/09/15 15:43:31;;;;;;;;;;;;;;;;;;;;;
2021/09/15 15:46:13;;;;;;;3.28;2.30;;;20.40;91.90;;;;;;6317802;22;20030;-92
2021/09/15 16:35:21;;;;;;;6.32;5.25;;;19.90;91.90;;;;;;6302918;22;20263;-92
2021/09/15 16:42:14;;;;;;;8.40;3.50;;;19.90;91.40;;;;;;6095712;23;20029;-92
2021/09/15 16:44:47;;;;;;;4.90;2.60;;;19.70;91.40;;;;;;6127381;22;20487;-84
2021/09/15 16:47:16;;;;;;;6.60;2.72;;;19.70;91.60;;;;;;6308052;22;20083;-84
2021/09/15 16:49:44;;;;;;;8.50;2.42;;;19.70;91.70;;;;;;6256364;22;20376;-84
2021/09/15 16:52:10;;;;;;;6.38;2.40;;;19.60;91.70;;;;;;6280518;22;20078;-85
2021/09/15 16:54:36;;;;;;;6.22;2.63;;;19.60;91.80;;;;;;6255762;22;20042;-84
2021/09/15 16:57:01;;;;;;;4.13;2.05;;;19.60;91.80;;;;;;6307389;22;20060;-84
2021/09/15 16:59:27;;;;;;;7.45;2.42;;;19.50;91.90;;;;;;6279752;22;20425;-84
2021/09/15 17:01:55;;;;;;;3.97;1.92;;;19.50;92.00;;;;;;6253641;22;20064;-87
2021/09/15 17:04:26;;;;;;;6.63;2.20;;;19.50;92.10;;;;;;6280639;22;20007;-84
2021/09/15 17:06:55;;;;;;;4.38;2.30;;;19.40;92.10;;;;;;6279968;22;20024;-85
2021/09/15 17:09:20;;;;;;;5.22;1.50;;;19.40;92.20;;;;;;6280437;22;20010;-84
2021/09/15 17:11:46;;;;;;;3.42;1.65;;;19.40;92.20;;;;;;6306970;22;20000;-85
2021/09/15 17:14:13;;;;;;;5.05;1.70;;;19.40;92.20;;;;;;6278839;22;20422;-85
2021/09/15 17:16:42;;;;;;;4.75;1.95;;;19.30;92.10;;;;;;6255810;22;20014;-89
2021/09/15 17:19:38;;;;;;;6.25;2.17;;;19.30;92.00;;;;;;6309041;22;20023;-89
2021/09/15 17:22:08;;;;;;;4.32;1.63;;;19.30;91.60;;;;;;6281494;22;20044;-86
2021/09/15 17:24:49;;;;;;;8.10;2.08;;;19.20;91.70;;;;;;6256414;22;20010;-86
2021/09/15 17:27:28;;;;;;;6.80;1.55;;;19.20;91.70;;;;;;6282093;22;19995;-88
2021/09/15 17:29:55;;;;;;;4.55;2.30;;;19.20;91.80;;;;;;6282744;22;20007;-90
2021/09/15 17:32:34;;;;;;;6.45;2.60;;;19.10;91.90;;;;;;6282489;22;20003;-88
2021/09/15 17:35:12;;;;;;;6.95;2.17;;;19.10;91.90;;;;;;6282857;22;19999;-88
2021/09/15 17:37:41;;;;;;;5.40;1.83;;;19.10;91.80;;;;;;6283181;22;20117;-88
2021/09/15 17:40:37;;;;;;;4.95;1.50;;;19.00;91.60;;;;;;6282205;22;20003;-89
2021/09/15 17:43:16;;;;;;;;;;;;;;;;;;;;;
2021/09/15 17:46:10;;;;;;;6.40;1.75;;;18.90;91.60;;;;;;6303731;22;20090;-89
2021/09/15 17:48:52;;;;;;;6.15;1.60;;;18.90;91.60;;;;;;6284175;22;19999;-89
2021/09/15 17:51:49;;;;;;;5.05;1.42;;;18.80;91.60;;;;;;6282380;22;20118;-89
2021/09/15 17:54:15;;;;;;;5.25;1.40;;;18.80;91.70;;;;;;6285414;22;20014;-87
2021/09/15 17:57:32;;;;;;;4.20;2.08;;;18.80;91.80;;;;;;6286294;22;20082;-87
2021/09/15 18:00:02;;;;;;;4.85;1.70;;;18.80;91.80;;;;;;6288974;22;20011;-91
2021/09/15 18:02:40;;;;;;;;;;;;;;;;;;;;;
2021/09/15 18:05:12;;;;;;;5.85;1.95;;;18.70;91.90;;;;;;6311779;22;20508;-89
2021/09/15 18:08:10;;;;;;;5.05;1.77;;;18.70;91.80;;;;;;6283777;22;20121;-89
2021/09/15 18:10:51;;;;;;;;;;;;;;;;;;;;;
2021/09/15 18:13:22;;;;;;;4.38;1.85;;;18.60;91.90;;;;;;6285692;22;20086;-89
2021/09/15 18:15:57;;;;;;;4.60;1.50;;;18.60;91.60;;;;;;6258742;22;20007;-90
2021/09/15 18:18:36;;;;;;;5.90;1.92;;;18.50;91.50;;;;;;6259803;22;20010;-88
2021/09/15 18:21:25;;;;;;;5.70;1.70;;;18.50;91.70;;;;;;6284690;22;20014;-88
2021/09/15 18:23:58;;;;;;;3.45;1.70;;;18.50;91.70;;;;;;6263984;22;20003;-89
2021/09/15 18:26:39;;;;;;;4.65;2.03;;;18.40;91.70;;;;;;6262487;22;20003;-87
2021/09/15 18:29:23;;;;;;;;;;;;;;;;;;;;;
2021/09/15 18:32:38;;;;;;;3.88;1.50;;;18.40;91.80;;;;;;6311767;22;20055;-89
2021/09/15 18:35:14;;;;;;;6.30;1.92;;;18.40;92.00;;;;;;6262780;22;20000;-89
2021/09/15 18:38:04;;;;;;;;;;;;;;;;;;;;;
2021/09/15 18:41:02;;;;;;;4.18;1.83;;;18.40;92.10;;;;;;6265449;22;20082;-86
2021/09/15 18:43:41;;;;;;;;;;;;;;;;;;;;;
2021/09/15 18:46:27;;;;;;;4.95;1.27;;;18.40;92.20;;;;;;6310318;22;20099;-88
2021/09/15 18:49:19;;;;;;;;;;;;;;;;;;;;;
2021/09/15 18:52:12;;;;;;;6.10;1.90;;;18.30;92.20;;;;;;6288711;22;20090;-89
2021/09/15 18:54:43;;;;;;;5.80;1.90;;;18.30;92.20;;;;;;6262985;22;20114;-90
2021/09/15 18:57:21;;;;;;;5.45;1.60;;;18.20;92.20;;;;;;6283461;22;20003;-90
2021/09/15 18:59:58;;;;;;;;;;;;;;;;;;;;;
2021/09/15 19:02:52;;;;;;;3.45;1.75;;;18.20;92.20;;;;;;6311191;22;20098;-89
2021/09/15 19:05:51;;;;;;;5.13;1.70;;;18.20;92.30;;;;;;6259460;22;20065;-87
2021/09/15 19:08:30;;;;;;;3.13;1.88;;;18.20;92.30;;;;;;6262581;22;20413;-88
2021/09/15 19:11:07;;;;;;;3.95;1.55;;;18.20;92.40;;;;;;6282532;22;20010;-89
2021/09/15 19:14:16;;;;;;;;;;;;;;;;;;;;;
2021/09/15 19:16:52;;;;;;;;;;;;;;;;;;;;;
2021/09/15 19:19:47;;;;;;;;;;;;;;;;;;;;;
2021/09/15 19:25:43;;;;;;;;;;;;;;;;;;;;;
2021/09/15 19:31:29;;;;;;;;;;;;;;;;;;;;;
2021/09/15 19:34:00;;;;;;;6.13;1.50;;;18.00;91.80;;;;;;6309964;22;20050;-89
2021/09/15 19:36:56;;;;;;;2.58;1.38;;;18.00;91.60;;;;;;6308184;22;20106;-90
2021/09/15 19:39:33;;;;;;;6.13;1.70;;;17.90;91.10;;;;;;6265928;22;20003;-88
2021/09/15 19:42:16;;;;;;;;;;;;;;;;;;;;;
2021/09/15 19:44:58;;;;;;;2.88;1.40;;;17.80;90.60;;;;;;6309709;22;20456;-88
2021/09/15 19:47:45;;;;;;;;;;;;;;;;;;;;;
2021/09/15 19:50:21;;;;;;;3.78;1.17;;;17.80;90.80;;;;;;6310243;22;20374;-89
2021/09/15 19:53:01;;;;;;;1.63;1.10;;;17.80;90.90;;;;;;6281121;22;19999;-88
2021/09/15 19:56:03;;;;;;;3.35;1.10;;;17.80;91.00;;;;;;6282634;22;20686;-88
2021/09/15 19:58:42;;;;;;;3.00;1.08;;;17.80;91.10;;;;;;6275259;22;20007;-88
2021/09/15 20:01:14;;;;;;;3.58;1.00;;;17.70;91.10;;;;;;6280863;22;20007;-91
2021/09/15 20:03:50;;;;;;;;;;;;;;;;;;;;;
2021/09/15 20:06:26;;;;;;;3.83;1.13;;;17.70;91.00;;;;;;6309732;22;20054;-90
2021/09/15 20:09:27;;;;;;;;;;;;;;;;;;;;;
2021/09/15 20:12:07;;;;;;;4.57;1.38;;;17.70;90.90;;;;;;6288329;22;20078;-89
2021/09/15 20:15:26;;;;;;;;;;;;;;;;;;;;;
2021/09/15 20:18:15;;;;;;;;;;;;;;;;;;;;;
2021/09/15 20:20:41;;;;;;;5.28;1.08;;;17.60;90.40;;;;;;6308723;22;20087;-87
2021/09/15 20:23:47;;;;;;;;;;;;;;;;;;;;;
2021/09/15 20:26:29;;;;;;;;;;;;;;;;;;;;;
2021/09/15 20:29:13;;;;;;;;;;;;;;;;;;;;;
2021/09/15 20:31:54;;;;;;;2.45;1.00;;;17.50;89.90;;;;;;6309041;22;20078;-90
2021/09/15 20:34:32;;;;;;;;;;;;;;;;;;;;;
2021/09/15 20:37:10;;;;;;;2.85;0.90;;;17.50;90.00;;;;;;6309558;22;20059;-90
2021/09/15 20:39:49;;;;;;;2.85;1.20;;;17.50;90.00;;;;;;6282187;22;20429;-88
2021/09/15 20:42:46;;;;;;;2.92;1.33;;;17.50;90.00;;;;;;6256017;22;20046;-86
2021/09/15 20:45:20;;;;;;;2.03;1.00;;;17.40;89.20;;;;;;6239372;22;20014;-92
2021/09/15 20:48:11;;;;;;;2.40;0.90;;;17.40;89.40;;;;;;6282508;22;20417;-90
2021/09/15 20:52:22;;;;;;;4.35;1.23;;;17.40;89.70;;;;;;6255830;22;20015;-88
2021/09/15 20:54:26;;;;;;;3.28;1.15;;;17.40;89.50;;;;;;6254050;22;19999;-89
2021/09/15 20:57:04;;;;;;;;;;;;;;;;;;;;;
2021/09/15 21:03:04;;;;;;;2.28;0.80;;;17.30;89.30;;;;;;6214304;23;20091;-89
2021/09/15 21:05:43;;;;;;;;;;;;;;;;;;;;;
2021/09/15 21:08:22;;;;;;;4.15;1.05;;;17.30;89.00;;;;;;6215451;23;20080;-88
2021/09/15 21:11:01;;;;;;;1.70;0.90;;;17.30;89.20;;;;;;6190707;23;20466;-89
2021/09/15 21:13:37;;;;;;;2.30;0.77;;;17.30;89.20;;;;;;6190687;23;20399;-88
2021/09/15 21:16:14;;;;;;;3.17;0.90;;;17.20;89.30;;;;;;6167566;23;20009;-90
2021/09/15 21:19:16;;;;;;;;;;;;;;;;;;;;;
2021/09/15 21:21:58;;;;;;;2.08;0.88;;;17.20;90.00;;;;;;6280769;22;20094;-89
2021/09/15 21:24:55;;;;;;;;;;;;;;;;;;;;;
2021/09/15 21:27:30;;;;;;;2.65;1.05;;;17.20;90.30;;;;;;6309173;22;20086;-89
2021/09/15 21:32:53;;;;;;;2.45;1.00;;;17.20;90.80;;;;;;6272559;22;20003;-89
2021/09/15 21:35:34;;;;;;;;;;;;;;;;;;;;;
2021/09/15 21:38:33;;;;;;;3.40;1.30;;;17.20;90.90;;;;;;6263596;22;20090;-89
2021/09/15 21:41:10;;;;;;;2.58;0.90;;;17.20;91.10;;;;;;6259306;22;20011;-89
2021/09/15 21:44:00;;;;;;;3.13;0.82;;;17.20;91.10;;;;;;6282457;22;20019;-89
2021/09/15 21:49:41;;;;;;;2.08;0.80;;;17.20;91.30;;;;;;6268362;22;20417;-88
2021/09/15 21:52:20;;;;;;;1.90;0.82;;;17.10;91.40;;;;;;6282060;22;20059;-89
2021/09/15 21:54:51;;;;;;;2.00;0.82;;;17.20;91.50;;;;;;6280916;22;20007;-89
2021/09/15 21:57:21;;;;;;;2.03;0.90;;;17.20;91.50;;;;;;6282393;22;20072;-90
2021/09/15 21:59:59;;;;;;;;;;;;;;;;;;;;;
2021/09/15 22:02:34;;;;;;;3.75;0.95;;;17.10;91.60;;;;;;6284260;22;20070;-90
2021/09/15 22:05:03;;;;;;;2.55;1.08;;;17.10;91.50;;;;;;6281592;22;20095;-90
2021/09/15 22:07:41;;;;;;;2.90;0.90;;;17.10;91.40;;;;;;6308731;22;20006;-90
2021/09/15 22:10:47;;;;;;;3.35;0.88;;;17.10;91.30;;;;;;6259048;22;20007;-88
2021/09/15 22:16:18;;;;;;;2.83;0.90;;;17.10;91.20;;;;;;6261570;22;20007;-89
2021/09/15 22:18:52;;;;;;;3.83;1.00;;;17.10;91.10;;;;;;6283138;22;20086;-89
2021/09/15 22:21:49;;;;;;;3.67;0.90;;;17.10;91.30;;;;;;6282912;22;20382;-89
2021/09/15 22:24:26;;;;;;;4.60;1.20;;;17.10;91.30;;;;;;6282151;22;20049;-89
2021/09/15 22:27:25;;;;;;;;;;;;;;;;;;;;;
2021/09/15 22:29:54;;;;;;;25.83;11.30;;;17.00;91.20;;;;;;6290339;22;20051;-90
2021/09/15 22:32:20;;;;;;;26.65;11.45;;;17.00;91.30;;;;;;6283225;22;20003;-90
2021/09/15 22:35:24;;;;;;;22.77;10.27;;;17.00;91.30;;;;;;6280466;22;20054;-90
2021/09/15 22:38:10;;;;;;;20.80;9.90;;;17.00;91.30;;;;;;6266668;22;20095;-89
2021/09/15 22:40:58;;;;;;;;;;;;;;;;;;;;;
2021/09/15 22:43:27;;;;;;;16.55;8.05;;;17.00;91.50;;;;;;6309370;22;20090;-88
2021/09/15 22:46:18;;;;;;;16.48;6.63;;;16.90;91.50;;;;;;6282352;22;19999;-90
2021/09/15 22:51:58;;;;;;;5.80;2.22;;;16.90;91.50;;;;;;6286118;22;19902;-89
2021/09/15 22:54:33;;;;;;;3.65;1.60;;;16.90;91.50;;;;;;6258220;22;20038;-90
2021/09/15 22:57:19;;;;;;;;;;;;;;;;;;;;;
2021/09/15 23:00:21;;;;;;;;;;;;;;;;;;;;;
2021/09/15 23:02:55;;;;;;;7.15;2.25;;;16.80;91.40;;;;;;6308841;22;20099;-89
2021/09/15 23:05:26;;;;;;;5.18;1.75;;;16.80;91.50;;;;;;6282072;22;20087;-89
2021/09/15 23:08:12;;;;;;;3.90;1.20;;;16.70;91.40;;;;;;6280805;22;19999;-89
2021/09/15 23:10:50;;;;;;;;;;;;;;;;;;;;;
2021/09/15 23:13:35;;;;;;;6.93;1.33;;;16.70;91.40;;;;;;6308812;22;20074;-90
2021/09/15 23:16:29;;;;;;;4.10;1.30;;;16.60;91.40;;;;;;6237064;22;20003;-89
2021/09/15 23:19:34;;;;;;;3.30;1.00;;;16.60;91.40;;;;;;6293850;22;20440;-89
2021/09/15 23:22:11;;;;;;;3.80;1.20;;;16.50;91.40;;;;;;6282691;22;20042;-90
2021/09/15 23:24:42;;;;;;;2.55;1.00;;;16.50;91.40;;;;;;6282056;22;20098;-90
2021/09/15 23:27:28;;;;;;;;;;;16.40;91.40;;;;;;6257485;22;19999;-89
2021/09/15 23:29:59;;;;;;;2.47;0.80;;;16.40;91.50;;;;;;6259886;22;20328;-89
2021/09/15 23:32:52;;;;;;;5.35;1.48;;;16.30;91.60;;;;;;6283002;22;20019;-90
2021/09/15 23:35:36;;;;;;;;;;;;;;;;;;;;;
2021/09/15 23:38:12;;;;;;;3.88;1.20;;;16.30;91.70;;;;;;6261982;22;20074;-89
2021/09/15 23:41:09;;;;;;;2.83;1.23;;;16.30;91.60;;;;;;6281857;22;20145;-89
2021/09/15 23:43:55;;;;;;;5.30;1.85;;;16.20;91.60;;;;;;6261122;22;20079;-90
2021/09/15 23:47:05;;;;;;;3.65;1.35;;;16.10;91.50;;;;;;6282286;22;20035;-89
2021/09/15 23:50:01;;;;;;;4.05;1.27;;;16.10;91.60;;;;;;6281320;22;20069;-90
2021/09/15 23:52:48;;;;;;;;;;;;;;;;;;;;;
2021/09/15 23:55:42;;;;;;;3.92;1.08;;;16.00;91.70;;;;;;6308799;22;20082;-90
2021/09/15 23:58:20;;;;;;;;;;;;;;;;;;;;;
